Time;durP1;ratioP1;P1;durP2;ratioP2;P2;SDS_P1;SDS_P2;PMS_P1;PMS_P2;Temp;Humidity;BMP_temperature;BMP_pressure;BME280_temperature;BME280_humidity;BME280_pressure;Samples;Min_cycle;Max_cycle;Signal;HPM_P1;HPM_P2
2023/04/08 00:00:32;;;;;;;1.00;0.20;;;;;;;15.71;54.81;100576.81;4980917;28;20504;-86
2023/04/08 00:03:01;;;;;;;2.33;0.30;;;;;;;15.80;53.02;100597.72;4983096;28;20510;-85
2023/04/08 00:05:30;;;;;;;1.60;0.50;;;;;;;15.73;53.21;100600.31;4987792;28;20548;-82
2023/04/08 00:08:00;;;;;;;0.45;0.30;;;;;;;15.61;53.45;100594.13;4980943;28;20046;-80
2023/04/08 00:10:29;;;;;;;0.35;0.20;;;;;;;15.51;53.78;100605.38;4987608;28;20042;-82
2023/04/08 00:12:59;;;;;;;0.95;0.30;;;;;;;15.43;54.08;100607.91;4987220;28;20054;-80
2023/04/08 00:15:28;;;;;;;0.35;0.32;;;;;;;15.29;51.83;100610.41;4985993;28;20058;-83
2023/04/08 00:17:57;;;;;;;1.10;0.43;;;;;;;15.11;48.18;100610.25;4985467;28;20042;-80
2023/04/08 00:20:26;;;;;;;0.30;0.13;;;;;;;14.98;51.29;100624.03;4980258;28;20046;-81
2023/04/08 00:22:54;;;;;;;1.55;0.28;;;;;;;14.84;51.42;100616.09;4982242;28;20046;-83
2023/04/08 00:25:24;;;;;;;1.55;0.28;;;;;;;14.73;50.51;100626.41;4984902;28;20050;-81
2023/04/08 00:27:53;;;;;;;0.50;0.30;;;;;;;14.60;50.37;100633.22;4987494;28;20117;-81
2023/04/08 00:30:22;;;;;;;0.30;0.30;;;;;;;14.49;49.02;100633.91;4975444;28;20051;-80
2023/04/08 00:32:50;;;;;;;1.70;0.15;;;;;;;14.36;50.89;100636.38;4978796;28;20050;-80
2023/04/08 00:35:19;;;;;;;0.45;0.22;;;;;;;14.26;52.21;100642.31;4983650;28;20413;-80
2023/04/08 00:37:48;;;;;;;0.43;0.30;;;;;;;14.15;50.84;100638.69;4980966;28;20440;-84
2023/04/08 00:40:17;;;;;;;0.93;0.50;;;;;;;14.07;52.13;100648.16;4981131;28;20058;-83
2023/04/08 00:42:47;;;;;;;0.50;0.20;;;;;;;13.92;52.37;100647.06;4983450;28;20583;-82
2023/04/08 00:45:16;;;;;;;1.05;0.30;;;;;;;13.84;51.44;100656.50;4981962;28;20054;-83
2023/04/08 00:47:45;;;;;;;0.35;0.20;;;;;;;13.76;51.44;100658.09;4979842;28;20504;-82
2023/04/08 00:50:14;;;;;;;0.32;0.30;;;;;;;13.62;51.80;100658.75;4977715;28;20505;-80
2023/04/08 00:52:42;;;;;;;0.20;0.20;;;;;;;13.56;54.15;100663.00;4980646;28;20145;-81
2023/04/08 00:55:11;;;;;;;3.00;0.30;;;;;;;13.47;52.42;100671.53;4978000;28;20050;-82
2023/04/08 00:57:39;;;;;;;0.75;0.20;;;;;;;13.38;53.96;100664.47;4988362;28;20057;-82
2023/04/08 01:00:11;;;;;;;0.35;0.22;;;;;;;13.30;51.59;100668.63;4970507;28;20050;-80
2023/04/08 01:02:46;;;;;;;0.95;0.40;;;;;;;13.18;51.17;100669.28;4976755;28;20492;-80
2023/04/08 01:05:20;;;;;;;0.20;0.10;;;;;;;13.11;51.52;100658.75;4974098;28;20069;-82
2023/04/08 01:07:50;;;;;;;0.60;0.20;;;;;;;13.03;53.16;100671.59;4985810;28;20066;-81
2023/04/08 01:10:23;;;;;;;0.55;0.25;;;;;;;12.99;52.98;100677.59;4987905;28;20052;-80
2023/04/08 01:12:56;;;;;;;0.52;0.20;;;;;;;12.94;55.58;100687.00;4988989;28;20171;-80
2023/04/08 01:15:28;;;;;;;0.15;0.10;;;;;;;12.88;53.46;100692.09;4986100;28;20046;-83
2023/04/08 01:17:59;;;;;;;0.90;0.20;;;;;;;12.85;54.76;100692.94;4981039;28;20588;-81
2023/04/08 01:20:30;;;;;;;3.70;0.70;;;;;;;12.83;55.51;100699.81;4984054;28;20054;-82
2023/04/08 01:23:11;;;;;;;1.50;0.70;;;;;;;12.75;54.03;100697.03;4992786;28;20101;-82
2023/04/08 01:25:40;;;;;;;1.00;0.65;;;;;;;12.74;53.98;100705.69;4987674;28;20043;-81
2023/04/08 01:28:16;;;;;;;1.00;0.47;;;;;;;12.74;55.05;100705.69;4985219;28;20562;-81
2023/04/08 01:30:46;;;;;;;6.28;2.00;;;;;;;12.69;53.19;100709.03;4995531;28;20046;-85
2023/04/08 01:33:17;;;;;;;1.42;1.00;;;;;;;12.67;54.60;100711.59;4991014;28;20538;-82
2023/04/08 01:35:46;;;;;;;1.08;0.40;;;;;;;12.66;56.44;100717.63;4984489;28;20043;-81
2023/04/08 01:38:18;;;;;;;1.08;0.28;;;;;;;12.66;55.74;100720.22;4989313;28;20050;-83
2023/04/08 01:40:48;;;;;;;2.47;0.40;;;;;;;12.66;57.27;100728.00;4982353;28;20108;-82
2023/04/08 01:43:33;;;;;;;1.55;0.47;;;;;;;12.65;57.91;100736.66;4992203;28;20066;-81
2023/04/08 01:46:03;;;;;;;1.67;1.30;;;;;;;12.60;56.57;100732.19;4988380;28;20058;-86
2023/04/08 01:48:32;;;;;;;2.10;1.55;;;;;;;12.53;55.19;100723.44;4984183;28;20169;-84
2023/04/08 01:51:02;;;;;;;2.10;1.20;;;;;;;12.56;56.12;100741.66;4991018;28;20089;-84
2023/04/08 01:53:30;;;;;;;2.35;1.10;;;;;;;12.53;57.10;100736.41;4985563;28;20105;-79
2023/04/08 01:56:06;;;;;;;2.22;1.30;;;;;;;12.48;56.93;100738.88;4983662;28;20510;-83
2023/04/08 01:58:40;;;;;;;2.13;1.65;;;;;;;12.38;56.73;100730.88;4985592;28;20089;-80
2023/04/08 02:01:12;;;;;;;1.05;0.80;;;;;;;12.39;56.82;100750.78;4991083;28;20046;-82
2023/04/08 02:03:44;;;;;;;0.50;0.30;;;;;;;12.31;57.54;100746.31;4991108;28;20591;-75
2023/04/08 02:06:13;;;;;;;2.15;1.55;;;;;;;12.26;57.60;100757.44;4982309;28;20048;-78
2023/04/08 02:08:41;;;;;;;1.83;0.95;;;;;;;12.20;57.92;100762.47;4983210;28;20070;-78
2023/04/08 02:11:10;;;;;;;0.75;0.52;;;;;;;12.16;57.46;100766.72;4986257;28;20101;-78
2023/04/08 02:13:40;;;;;;;2.13;0.68;;;;;;;12.12;58.73;100770.09;4986936;28;20058;-77
2023/04/08 02:16:22;;;;;;;1.15;0.30;;;;;;;12.10;58.53;100766.59;4989302;28;20046;-77
2023/04/08 02:18:57;;;;;;;1.77;0.52;;;;;;;12.07;58.91;100769.09;4990904;28;20057;-77
2023/04/08 02:21:33;;;;;;;1.08;0.60;;;;;;;12.04;58.57;100771.63;4982362;28;20078;-76
2023/04/08 02:24:05;;;;;;;0.50;0.50;;;;;;;11.97;57.92;100774.91;4980691;28;20572;-77
2023/04/08 02:26:37;;;;;;;1.20;0.77;;;;;;;11.93;59.15;100769.66;4988585;28;20043;-76
2023/04/08 02:29:08;;;;;;;0.98;0.50;;;;;;;11.94;59.57;100775.72;4983559;28;20045;-77
2023/04/08 02:31:36;;;;;;;1.83;0.73;;;;;;;11.90;60.17;100769.56;4987153;28;20677;-76
2023/04/08 02:34:08;;;;;;;1.42;1.10;;;;;;;11.86;60.50;100772.88;4987232;28;20046;-78
2023/04/08 02:36:37;;;;;;;0.93;0.70;;;;;;;11.82;60.34;100760.72;4988695;28;20097;-77
2023/04/08 02:39:06;;;;;;;3.45;2.58;;;;;;;11.82;59.89;100775.38;4978111;28;20050;-77
2023/04/08 02:41:34;;;;;;;2.20;1.13;;;;;;;11.77;60.16;100771.78;4987069;28;20043;-78
2023/04/08 02:44:03;;;;;;;5.15;2.30;;;;;;;11.74;59.59;100782.97;4986702;28;20065;-78
2023/04/08 02:46:33;;;;;;;3.10;1.38;;;;;;;11.72;60.64;100790.69;4987770;28;20050;-76
2023/04/08 02:49:02;;;;;;;3.15;1.60;;;;;;;11.67;61.13;100786.25;4984835;28;20053;-78
2023/04/08 02:51:31;;;;;;;5.00;1.65;;;;;;;11.66;61.90;100784.47;4987739;28;20043;-77
2023/04/08 02:53:59;;;;;;;3.25;1.63;;;;;;;11.61;62.66;100780.88;4987330;28;20078;-77
2023/04/08 02:56:28;;;;;;;2.03;1.33;;;;;;;11.63;61.81;100779.22;4980233;28;20564;-76
2023/04/08 02:58:56;;;;;;;2.05;1.05;;;;;;;11.61;63.33;100786.94;4986504;28;20595;-77
2023/04/08 03:01:25;;;;;;;1.85;1.17;;;;;;;11.59;63.59;100787.75;4986304;28;20554;-78
2023/04/08 03:03:55;;;;;;;1.15;0.50;;;;;;;11.56;64.26;100793.72;4981782;28;20370;-78
2023/04/08 03:06:23;;;;;;;7.80;4.72;;;;;;;11.54;64.75;100790.22;4986709;28;20185;-76
2023/04/08 03:08:52;;;;;;;6.22;3.60;;;;;;;11.50;65.15;100793.59;4988035;28;20050;-77
2023/04/08 03:11:20;;;;;;;3.33;2.30;;;;;;;11.53;67.83;100799.72;4985317;28;20503;-77
2023/04/08 03:13:49;;;;;;;2.45;1.33;;;;;;;11.50;67.18;100799.66;4985714;28;20606;-78
2023/04/08 03:16:17;;;;;;;2.38;0.60;;;;;;;11.47;67.67;100799.53;4985696;28;20064;-75
2023/04/08 03:18:46;;;;;;;0.40;0.20;;;;;;;11.42;66.29;100808.91;4986098;28;20130;-74
2023/04/08 03:21:16;;;;;;;1.65;0.50;;;;;;;11.37;66.33;100820.88;4986172;28;20065;-74
2023/04/08 03:23:45;;;;;;;8.52;3.97;;;;;;;11.33;66.87;100822.47;4981513;28;20065;-74
2023/04/08 03:26:14;;;;;;;14.85;6.70;;;;;;;11.31;65.46;100818.09;4988018;28;20122;-76
2023/04/08 03:28:42;;;;;;;5.15;2.80;;;;;;;11.28;65.99;100818.03;4980757;28;20083;-76
2023/04/08 03:31:11;;;;;;;14.10;6.32;;;;;;;11.25;65.19;100817.97;4984333;28;20050;-75
2023/04/08 03:33:39;;;;;;;2.58;1.50;;;;;;;11.19;68.40;100812.59;4987975;28;20587;-75
2023/04/08 03:36:08;;;;;;;2.03;0.30;;;;;;;11.13;66.17;100825.34;4985892;28;20050;-75
2023/04/08 03:38:39;;;;;;;1.75;0.43;;;;;;;11.10;68.52;100828.75;4984591;28;20160;-75
2023/04/08 03:41:07;;;;;;;1.85;0.50;;;;;;;11.09;68.18;100833.06;4987515;28;20093;-74
2023/04/08 03:43:36;;;;;;;0.88;0.30;;;;;;;11.08;67.16;100827.81;4988824;28;20717;-74
2023/04/08 03:46:04;;;;;;;1.38;0.30;;;;;;;10.99;67.07;100820.66;4987046;28;20420;-74
2023/04/08 03:48:33;;;;;;;1.67;0.55;;;;;;;11.00;67.52;100834.50;4983559;28;20054;-74
2023/04/08 03:51:01;;;;;;;2.05;0.40;;;;;;;10.97;68.46;100831.81;4982253;28;20112;-74
2023/04/08 03:53:30;;;;;;;4.13;0.40;;;;;;;10.92;67.62;100839.44;4981710;28;20089;-74
2023/04/08 03:56:02;;;;;;;0.90;0.30;;;;;;;10.86;68.10;100840.16;4979961;28;20567;-75
2023/04/08 03:58:30;;;;;;;2.67;1.00;;;;;;;10.82;70.48;100842.59;4982729;28;20057;-78
2023/04/08 04:00:59;;;;;;;3.67;0.90;;;;;;;10.78;75.50;100844.22;4977845;28;20043;-76
2023/04/08 04:03:28;;;;;;;1.23;0.70;;;;;;;10.71;77.26;100844.00;4985327;28;20049;-76
2023/04/08 04:05:56;;;;;;;3.53;1.23;;;;;;;10.66;77.37;100852.50;4988174;28;20492;-76
2023/04/08 04:08:25;;;;;;;1.52;0.98;;;;;;;10.62;75.81;100860.09;4983003;28;20479;-75
2023/04/08 04:10:53;;;;;;;2.97;1.30;;;;;;;10.51;76.06;100857.19;4981709;28;20055;-76
2023/04/08 04:13:23;;;;;;;2.30;0.50;;;;;;;10.46;74.65;100851.84;4985490;28;20117;-76
2023/04/08 04:15:52;;;;;;;8.13;2.28;;;;;;;10.42;73.24;100856.88;4985600;28;20050;-75
2023/04/08 04:18:20;;;;;;;3.60;1.25;;;;;;;10.29;74.07;100865.97;4981745;28;20496;-76
2023/04/08 04:20:49;;;;;;;5.05;1.17;;;;;;;10.09;80.77;100870.47;4988412;28;20567;-76
2023/04/08 04:23:17;;;;;;;1.13;0.85;;;;;;;9.91;84.15;100872.44;4986562;28;20466;-77
2023/04/08 04:25:46;;;;;;;5.90;0.40;;;;;;;9.80;85.24;100877.22;4984150;28;20053;-77
2023/04/08 04:28:14;;;;;;;1.73;0.85;;;;;;;9.71;85.87;100880.38;4984490;28;20048;-76
2023/04/08 04:30:45;;;;;;;1.45;0.60;;;;;;;9.69;85.08;100879.47;4987767;28;20062;-76
2023/04/08 04:33:13;;;;;;;0.93;0.50;;;;;;;9.67;85.04;100875.03;4982116;28;20065;-76
2023/04/08 04:35:48;;;;;;;0.82;0.50;;;;;;;9.66;83.87;100881.91;4982042;28;20054;-77
2023/04/08 04:38:17;;;;;;;1.38;0.70;;;;;;;9.64;83.95;100888.72;4982566;28;20061;-77
2023/04/08 04:40:45;;;;;;;3.67;0.80;;;;;;;9.58;84.88;100889.41;4985612;28;20125;-77
2023/04/08 04:43:14;;;;;;;3.42;0.60;;;;;;;9.46;88.09;100893.22;4984772;28;20105;-76
2023/04/08 04:45:44;;;;;;;1.45;0.30;;;;;;;9.28;90.96;100885.69;4966999;28;20047;-77
2023/04/08 04:48:12;;;;;;;0.85;0.47;;;;;;;9.29;93.21;100898.66;4957904;28;20059;-77
2023/04/08 04:50:41;;;;;;;1.10;0.60;;;;;;;9.31;93.40;100903.91;4968291;28;20046;-77
2023/04/08 04:53:10;;;;;;;1.25;0.70;;;;;;;9.35;93.56;100910.94;4962000;28;20186;-76
2023/04/08 04:55:38;;;;;;;1.33;0.77;;;;;;;9.36;92.96;100908.41;4971080;28;20070;-77
2023/04/08 04:58:07;;;;;;;2.35;0.90;;;;;;;9.35;92.21;100914.41;4966450;28;20126;-77
2023/04/08 05:00:35;;;;;;;2.50;0.82;;;;;;;9.43;91.26;100925.00;4961173;28;20046;-76
2023/04/08 05:03:05;;;;;;;2.65;0.88;;;;;;;9.46;92.71;100919.06;4963592;28;20057;-75
2023/04/08 05:05:34;;;;;;;6.25;1.50;;;;;;;9.46;92.16;100919.97;4966492;28;20195;-76
2023/04/08 05:08:02;;;;;;;1.80;1.17;;;;;;;9.48;91.01;100925.16;4957517;28;20043;-76
2023/04/08 05:10:31;;;;;;;3.00;1.10;;;;;;;9.45;91.86;100918.19;4963562;28;20067;-77
2023/04/08 05:12:59;;;;;;;6.28;1.35;;;;;;;9.42;91.21;100926.72;4963965;28;20050;-78
2023/04/08 05:15:28;;;;;;;2.90;0.90;;;;;;;9.36;92.35;100910.97;4964378;28;20516;-76
2023/04/08 05:17:56;;;;;;;1.77;0.90;;;;;;;9.30;94.13;100917.63;4960260;28;20055;-76
2023/04/08 05:20:27;;;;;;;4.75;1.23;;;;;;;9.25;95.71;100924.31;4967953;28;20046;-76
2023/04/08 05:22:55;;;;;;;1.83;0.93;;;;;;;9.18;95.58;100912.88;4962990;28;20061;-75
2023/04/08 05:25:24;;;;;;;2.97;1.00;;;;;;;9.15;97.15;100925.69;4958332;28;20061;-75
2023/04/08 05:27:52;;;;;;;2.00;1.15;;;;;;;9.12;96.44;100917.84;4968254;28;20047;-75
2023/04/08 05:30:21;;;;;;;2.70;1.20;;;;;;;9.11;96.34;100922.09;4963158;28;20050;-76
2023/04/08 05:32:49;;;;;;;1.15;0.60;;;;;;;9.11;93.04;100916.94;4966873;28;20089;-75
2023/04/08 05:35:18;;;;;;;0.70;0.40;;;;;;;9.19;92.63;100914.66;4960598;28;20055;-76
2023/04/08 05:37:48;;;;;;;1.58;0.60;;;;;;;9.23;92.41;100906.19;4962213;28;20501;-76
2023/04/08 05:40:17;;;;;;;2.80;0.68;;;;;;;9.27;91.36;100908.06;4963318;28;20050;-77
2023/04/08 05:42:45;;;;;;;4.03;0.63;;;;;;;9.26;90.61;100911.47;4963465;28;20129;-77
2023/04/08 05:45:14;;;;;;;1.15;0.57;;;;;;;9.23;89.85;100916.50;4980708;28;20062;-77
2023/04/08 05:47:42;;;;;;;0.38;0.20;;;;;;;9.22;88.59;100912.19;4986875;28;20039;-77
2023/04/08 05:50:12;;;;;;;0.90;0.40;;;;;;;9.23;88.55;100912.25;4984056;28;20587;-77
2023/04/08 05:52:44;;;;;;;2.78;0.82;;;;;;;9.21;89.82;100913.00;4985435;28;20042;-76
2023/04/08 05:55:15;;;;;;;1.17;0.45;;;;;;;9.13;90.46;100917.88;4987419;28;20054;-76
2023/04/08 05:57:44;;;;;;;1.80;0.28;;;;;;;9.10;90.45;100922.06;4971035;28;20055;-77
2023/04/08 06:00:13;;;;;;;0.80;0.50;;;;;;;9.08;89.73;100921.13;4975698;28;20047;-75
2023/04/08 06:02:41;;;;;;;2.75;0.38;;;;;;;9.08;90.18;100923.69;4985247;28;20043;-76
2023/04/08 06:05:10;;;;;;;0.73;0.30;;;;;;;9.02;89.15;100917.47;4978591;28;20054;-76
2023/04/08 06:07:39;;;;;;;0.80;0.38;;;;;;;9.04;89.67;100914.06;4979762;28;20053;-76
2023/04/08 06:10:09;;;;;;;0.70;0.40;;;;;;;9.02;89.97;100922.66;4979716;28;20579;-76
2023/04/08 06:12:39;;;;;;;1.55;0.50;;;;;;;9.01;89.49;100930.31;4982695;28;20054;-78
2023/04/08 06:15:09;;;;;;;1.20;0.40;;;;;;;8.95;89.88;100925.78;4982604;28;20082;-77
2023/04/08 06:17:38;;;;;;;2.92;0.30;;;;;;;8.95;89.44;100925.78;4989456;28;20093;-77
2023/04/08 06:20:08;;;;;;;1.27;0.55;;;;;;;8.96;89.21;100930.13;4986636;28;20058;-76
2023/04/08 06:22:36;;;;;;;4.95;0.38;;;;;;;8.86;90.43;100909.06;4981079;28;20038;-77
2023/04/08 06:25:05;;;;;;;0.30;0.22;;;;;;;8.94;88.76;100928.31;4989484;28;20101;-75
2023/04/08 06:27:34;;;;;;;3.83;0.30;;;;;;;8.93;89.09;100922.28;4986142;28;20165;-76
2023/04/08 06:30:04;;;;;;;1.55;0.45;;;;;;;8.94;89.00;100924.03;4986068;28;20046;-77
2023/04/08 06:32:33;;;;;;;2.17;0.80;;;;;;;8.91;90.44;100912.69;4982008;28;20051;-77
2023/04/08 06:35:02;;;;;;;0.68;0.30;;;;;;;8.92;89.76;100919.63;4979685;28;20539;-76
2023/04/08 06:37:30;;;;;;;2.20;0.55;;;;;;;8.87;89.30;100922.03;4984915;28;20054;-75
2023/04/08 06:39:59;;;;;;;3.67;0.30;;;;;;;8.89;89.32;100930.72;4983373;28;20058;-76
2023/04/08 06:42:27;;;;;;;5.78;0.52;;;;;;;8.92;89.89;100930.84;4987717;28;20046;-76
2023/04/08 06:44:56;;;;;;;0.70;0.65;;;;;;;8.93;88.38;100932.63;4987307;28;20066;-76
2023/04/08 06:47:27;;;;;;;0.50;0.40;;;;;;;8.94;88.48;100923.16;4988144;28;20046;-76
2023/04/08 06:49:55;;;;;;;6.13;0.50;;;;;;;8.95;88.12;100933.53;4980847;28;20468;-76
2023/04/08 06:52:24;;;;;;;1.45;0.38;;;;;;;8.95;89.25;100932.66;4990400;28;20053;-76
2023/04/08 06:54:52;;;;;;;0.28;0.20;;;;;;;8.97;89.22;100937.06;4986749;28;20042;-76
2023/04/08 06:57:21;;;;;;;1.67;0.43;;;;;;;8.96;88.65;100927.56;4977810;28;20543;-76
2023/04/08 06:59:49;;;;;;;0.63;0.30;;;;;;;8.85;89.34;100908.19;4990092;28;20491;-78
2023/04/08 07:02:18;;;;;;;4.78;0.60;;;;;;;8.90;89.40;100917.00;4981985;28;20051;-77
2023/04/08 07:04:48;;;;;;;0.77;0.43;;;;;;;8.86;91.37;100921.97;4984997;28;20050;-76
2023/04/08 07:07:17;;;;;;;0.52;0.17;;;;;;;8.81;91.28;100922.66;4991146;28;20097;-77
2023/04/08 07:09:46;;;;;;;1.63;0.47;;;;;;;8.78;90.48;100916.53;4988680;28;20097;-76
2023/04/08 07:12:14;;;;;;;2.08;0.40;;;;;;;8.75;89.08;100916.38;4988747;28;20220;-77
2023/04/08 07:14:43;;;;;;;2.13;0.40;;;;;;;8.72;88.57;100917.16;4983111;28;21209;-76
2023/04/08 07:17:11;;;;;;;2.20;0.20;;;;;;;8.69;87.82;100917.03;4986127;28;20599;-78
2023/04/08 07:19:40;;;;;;;1.63;0.65;;;;;;;8.67;86.68;100910.06;4979271;28;20046;-77
2023/04/08 07:22:10;;;;;;;5.50;0.80;;;;;;;8.69;85.96;100906.72;4991057;28;20106;-77
2023/04/08 07:24:41;;;;;;;2.22;0.22;;;;;;;8.68;86.69;100919.53;4987465;28;20054;-78
2023/04/08 07:27:16;;;;;;;1.45;0.52;;;;;;;8.68;87.77;100914.38;4985426;28;20043;-76
2023/04/08 07:29:45;;;;;;;5.30;0.63;;;;;;;8.67;88.29;100913.50;4987679;28;20062;-77
2023/04/08 07:32:13;;;;;;;1.85;0.43;;;;;;;8.65;88.45;100919.44;4986467;28;20078;-78
2023/04/08 07:34:42;;;;;;;1.58;0.50;;;;;;;8.63;90.00;100915.91;4980835;28;20102;-77
2023/04/08 07:37:12;;;;;;;2.67;0.40;;;;;;;8.60;88.64;100922.69;4983699;28;20489;-76
2023/04/08 07:39:41;;;;;;;1.00;0.20;;;;;;;8.63;89.10;100921.06;4983747;28;20567;-78
2023/04/08 07:42:09;;;;;;;1.13;0.40;;;;;;;8.63;88.29;100916.78;4985281;28;20070;-76
2023/04/08 07:44:38;;;;;;;0.63;0.28;;;;;;;8.65;88.45;100924.59;4988645;28;20669;-76
2023/04/08 07:47:07;;;;;;;0.57;0.40;;;;;;;8.64;87.86;100926.28;4982323;28;20169;-76
2023/04/08 07:49:35;;;;;;;3.50;0.65;;;;;;;8.64;89.09;100922.84;4987927;28;20516;-76
2023/04/08 07:52:04;;;;;;;0.45;0.30;;;;;;;8.63;88.70;100919.34;4977606;28;20118;-76
2023/04/08 07:54:34;;;;;;;1.05;0.25;;;;;;;8.62;89.08;100911.59;4983752;28;20140;-76
2023/04/08 07:57:03;;;;;;;3.95;0.40;;;;;;;8.63;88.72;100918.50;4983548;28;20054;-75
2023/04/08 07:59:32;;;;;;;3.10;0.40;;;;;;;8.63;88.99;100916.78;4986905;28;20046;-76
2023/04/08 08:02:01;;;;;;;1.08;0.32;;;;;;;8.64;87.88;100904.78;4980682;28;20058;-76
2023/04/08 08:04:29;;;;;;;1.27;0.40;;;;;;;8.65;89.12;100909.13;4977562;28;20047;-76
2023/04/08 08:06:58;;;;;;;0.68;0.30;;;;;;;8.64;87.64;100907.38;4989751;28;20185;-76
2023/04/08 08:09:26;;;;;;;3.10;0.85;;;;;;;8.61;87.73;100913.25;4983150;28;20058;-77
2023/04/08 08:11:56;;;;;;;1.35;0.63;;;;;;;8.60;88.05;100914.97;4987389;28;20512;-76
2023/04/08 08:14:25;;;;;;;0.45;0.35;;;;;;;8.63;87.40;100910.75;4980995;28;20042;-76
2023/04/08 08:16:54;;;;;;;1.63;0.50;;;;;;;8.63;88.59;100910.75;4987828;28;20050;-75
2023/04/08 08:19:23;;;;;;;1.52;0.40;;;;;;;8.67;90.61;100899.75;4978733;28;20053;-77
2023/04/08 08:21:51;;;;;;;5.57;0.40;;;;;;;8.68;92.67;100899.81;4985905;28;20046;-77
2023/04/08 08:24:20;;;;;;;0.77;0.40;;;;;;;8.68;88.68;100893.75;4984889;28;20090;-77
2023/04/08 08:26:48;;;;;;;1.13;0.47;;;;;;;8.70;91.03;100897.28;4984560;28;20042;-77
2023/04/08 08:29:19;;;;;;;1.05;0.10;;;;;;;8.71;91.50;100899.91;4977731;28;20137;-77
2023/04/08 08:31:47;;;;;;;0.45;0.35;;;;;;;8.64;91.52;100897.06;4980759;28;20496;-77
2023/04/08 08:34:16;;;;;;;5.28;0.70;;;;;;;8.65;91.54;100901.38;4987050;28;20554;-77
2023/04/08 08:36:44;;;;;;;0.63;0.35;;;;;;;8.66;88.70;100908.28;4976403;28;20054;-77
2023/04/08 08:39:13;;;;;;;1.35;0.60;;;;;;;8.64;87.26;100907.38;4980118;28;20534;-77
2023/04/08 08:41:41;;;;;;;7.43;0.73;;;;;;;8.60;89.53;100902.06;4974933;28;20057;-77
2023/04/08 08:44:11;;;;;;;0.45;0.22;;;;;;;8.54;88.94;100901.84;4986009;28;20057;-77
2023/04/08 08:46:45;;;;;;;6.65;0.50;;;;;;;8.52;91.21;100908.63;4988578;28;20062;-77
2023/04/08 08:49:14;;;;;;;1.13;0.30;;;;;;;8.42;88.56;100906.50;4984760;28;20153;-77
2023/04/08 08:51:44;;;;;;;4.97;0.70;;;;;;;8.41;89.79;100909.00;4980367;28;20054;-77
2023/04/08 08:54:13;;;;;;;1.27;0.63;;;;;;;8.40;90.34;100913.28;4986832;28;20136;-77
2023/04/08 08:56:42;;;;;;;2.17;0.43;;;;;;;8.37;90.01;100914.00;4984492;28;20048;-77
2023/04/08 08:59:10;;;;;;;1.15;0.30;;;;;;;8.36;88.21;100911.34;4982305;28;20038;-77
2023/04/08 09:01:41;;;;;;;4.15;0.55;;;;;;;8.35;88.92;100901.88;4985415;28;20050;-77
2023/04/08 09:04:12;;;;;;;2.05;0.40;;;;;;;8.36;88.27;100911.34;4987196;28;20046;-77
2023/04/08 09:06:41;;;;;;;0.35;0.30;;;;;;;8.40;91.59;100918.44;4981598;28;20057;-77
2023/04/08 09:09:12;;;;;;;0.28;0.20;;;;;;;8.45;92.86;100926.34;4981304;28;20050;-77
2023/04/08 09:11:42;;;;;;;2.13;0.40;;;;;;;8.48;91.91;100932.53;4985041;28;20042;-77
2023/04/08 09:14:22;;;;;;;0.57;0.25;;;;;;;8.49;90.93;100929.13;4982082;28;20050;-77
2023/04/08 09:16:52;;;;;;;1.45;0.43;;;;;;;8.48;90.91;100935.13;4985548;28;20129;-77
2023/04/08 09:19:21;;;;;;;2.20;0.70;;;;;;;8.48;88.83;100932.53;4985088;28;20046;-77
2023/04/08 09:22:07;;;;;;;0.65;0.57;;;;;;;8.51;89.62;100936.94;4987112;28;20120;-77
2023/04/08 09:24:36;;;;;;;3.30;0.68;;;;;;;8.52;88.36;100929.28;4983849;28;20045;-77
2023/04/08 09:27:04;;;;;;;3.83;0.40;;;;;;;8.53;90.13;100923.28;4982101;28;20074;-77
2023/04/08 09:29:33;;;;;;;0.90;0.30;;;;;;;8.54;90.34;100921.56;4984970;28;20129;-77
2023/04/08 09:32:04;;;;;;;1.42;0.57;;;;;;;8.52;89.64;100931.84;4977891;28;20050;-77
2023/04/08 09:34:33;;;;;;;2.17;0.50;;;;;;;8.49;90.27;100918.81;4981399;28;20058;-77
2023/04/08 09:37:01;;;;;;;4.22;0.98;;;;;;;8.47;89.88;100920.44;4979668;28;20539;-77
2023/04/08 09:39:30;;;;;;;5.88;0.30;;;;;;;8.46;89.84;100917.81;4980151;28;20428;-77
2023/04/08 09:42:01;;;;;;;1.75;0.30;;;;;;;8.46;90.74;100916.13;4983881;28;20719;-76
2023/04/08 09:44:33;;;;;;;0.68;0.50;;;;;;;8.46;90.97;100918.69;4980014;28;20701;-77
2023/04/08 09:47:13;;;;;;;4.55;0.47;;;;;;;8.43;90.47;100913.44;4984704;28;20058;-77
2023/04/08 09:49:47;;;;;;;3.60;0.38;;;;;;;8.42;90.91;100911.66;4986895;28;20058;-77
2023/04/08 09:52:24;;;;;;;0.75;0.35;;;;;;;8.37;90.06;100903.69;4985707;28;20105;-77
2023/04/08 09:54:56;;;;;;;1.33;0.40;;;;;;;8.36;90.95;100906.19;4991544;28;20116;-75
2023/04/08 09:57:34;;;;;;;1.35;0.50;;;;;;;8.37;89.62;100913.13;4985416;28;20539;-77
2023/04/08 10:00:09;;;;;;;2.25;0.30;;;;;;;8.32;90.06;100906.91;4985446;28;20054;-77
2023/04/08 10:02:55;;;;;;;1.40;0.35;;;;;;;8.30;90.70;100916.28;4984959;28;20077;-78
2023/04/08 10:05:26;;;;;;;3.83;0.57;;;;;;;8.30;91.33;100911.13;4988748;28;20149;-75
2023/04/08 10:07:56;;;;;;;2.15;0.80;;;;;;;8.28;91.30;100908.47;4989325;28;20104;-75
2023/04/08 10:10:26;;;;;;;0.90;0.38;;;;;;;8.28;91.83;100912.75;4986082;28;20054;-76
2023/04/08 10:12:54;;;;;;;3.80;0.60;;;;;;;8.28;91.33;100902.44;4984018;28;20051;-75
2023/04/08 10:15:30;;;;;;;0.43;0.17;;;;;;;8.28;90.73;100899.88;4973981;28;20058;-75
2023/04/08 10:18:36;;;;;;;3.97;0.60;;;;;;;8.25;90.74;100902.34;4986088;28;20772;-75
2023/04/08 10:21:05;;;;;;;0.82;0.45;;;;;;;8.25;90.65;100917.78;4989873;28;20133;-75
2023/04/08 10:23:57;;;;;;;1.13;0.35;;;;;;;8.25;91.92;100922.94;4989758;28;20119;-75
2023/04/08 10:26:34;;;;;;;2.92;1.15;;;;;;;8.25;91.67;100915.22;4978321;28;20058;-75
2023/04/08 10:29:45;;;;;;;0.65;0.40;;;;;;;8.25;91.68;100912.63;4987271;28;20061;-75
2023/04/08 10:32:30;;;;;;;1.05;0.40;;;;;;;8.24;92.22;100906.56;4984122;28;20042;-75
2023/04/08 10:35:01;;;;;;;0.75;0.28;;;;;;;8.25;92.61;100900.63;4988985;28;20049;-75
2023/04/08 10:37:29;;;;;;;2.70;1.00;;;;;;;8.24;92.54;100905.69;4982663;28;20125;-75
2023/04/08 10:39:58;;;;;;;1.73;0.28;;;;;;;8.23;93.43;100911.69;4987162;28;20050;-75
2023/04/08 10:42:30;;;;;;;0.40;0.20;;;;;;;8.22;92.28;100908.22;4987491;28;20054;-78
2023/04/08 10:45:03;;;;;;;2.10;0.32;;;;;;;8.16;92.61;100901.13;4987556;28;20078;-76
2023/04/08 10:47:31;;;;;;;0.77;0.47;;;;;;;8.16;92.17;100914.00;4988796;28;20058;-76
2023/04/08 10:50:02;;;;;;;0.68;0.40;;;;;;;8.13;92.91;100908.72;4988500;28;20522;-75
2023/04/08 10:52:30;;;;;;;1.58;0.43;;;;;;;8.14;93.56;100920.78;4990086;28;20038;-75
2023/04/08 10:54:59;;;;;;;2.92;0.40;;;;;;;8.14;93.34;100925.94;4985761;28;20061;-75
2023/04/08 10:57:28;;;;;;;0.65;0.30;;;;;;;8.13;93.87;100926.78;4990205;28;20108;-75
2023/04/08 10:59:56;;;;;;;1.75;0.40;;;;;;;8.12;94.61;100913.81;4984697;28;20093;-75
2023/04/08 11:02:34;;;;;;;0.95;0.32;;;;;;;8.12;93.90;100926.69;4982664;28;20050;-75
2023/04/08 11:05:04;;;;;;;0.52;0.40;;;;;;;8.12;94.64;100926.69;4990048;28;20082;-75
2023/04/08 11:07:33;;;;;;;1.67;0.57;;;;;;;8.12;93.92;100927.56;4984441;28;20054;-76
2023/04/08 11:10:04;;;;;;;1.83;0.40;;;;;;;8.08;94.75;100914.50;4980395;28;20088;-76
2023/04/08 11:12:33;;;;;;;0.80;0.30;;;;;;;8.07;96.00;100921.34;4987341;28;20112;-77
2023/04/08 11:15:03;;;;;;;0.98;0.47;;;;;;;8.05;95.36;100930.72;4986304;28;20109;-77
2023/04/08 11:17:34;;;;;;;2.75;0.45;;;;;;;8.07;96.23;100936.81;4986369;28;20043;-77
2023/04/08 11:20:05;;;;;;;1.85;0.60;;;;;;;8.07;95.94;100936.81;4985996;28;20492;-77
2023/04/08 11:22:34;;;;;;;1.52;0.50;;;;;;;8.07;95.88;100946.25;4983464;28;20119;-77
2023/04/08 11:25:03;;;;;;;1.17;0.75;;;;;;;8.07;95.44;100948.81;4987815;28;20673;-76
2023/04/08 11:27:32;;;;;;;3.65;0.60;;;;;;;8.09;94.74;100948.06;4987098;28;20050;-76
2023/04/08 11:30:01;;;;;;;1.27;0.45;;;;;;;8.06;94.49;100935.03;4990649;28;20121;-76
2023/04/08 11:32:30;;;;;;;1.48;0.57;;;;;;;8.07;95.13;100943.66;4986787;28;20060;-77
2023/04/08 11:35:01;;;;;;;0.80;0.35;;;;;;;8.03;95.02;100937.50;4986011;28;20101;-76
2023/04/08 11:37:38;;;;;;;2.40;0.57;;;;;;;8.06;95.26;100942.75;4985852;28;20054;-76
2023/04/08 11:40:11;;;;;;;3.80;0.85;;;;;;;8.07;95.85;100948.81;4985256;28;20531;-76
2023/04/08 11:42:40;;;;;;;3.15;0.73;;;;;;;8.07;95.12;100953.97;4984605;28;20050;-77